Data for 06/05/2005

Time Sea-Level Adjusted Pressure Absolute Pressure Temperature Relative Humidity Dew Point   
(mb) (inHg) (mb) (inHg) (C) (F) (%) (C) (F)
00:05 1012 29.88 841 24.83 11.5 52.7 67 5.6 42.1
00:10 1012 29.88 841 24.83 11.4 52.5 67 5.6 42.1
00:15 1012 29.88 841 24.83 11.3 52.3 67 5.3 41.5
00:20 1012 29.88 841 24.83 11.3 52.3 67 5.3 41.6
00:25 1012 29.88 841 24.83 11.2 52.1 66 5.2 41.3
00:30 1012 29.88 841 24.83 11 51.9 66 5 41
00:35 1012 29.88 841 24.83 11 51.8 66 5 41
00:40 1012 29.88 841 24.83 11 51.7 66 4.9 40.9
00:45 1012 29.88 841 24.83 11 51.8 66 4.9 40.8
00:50 1012 29.88 841 24.83 11 51.8 65 4.7 40.4
00:55 1012 29.88 841 24.83 11.1 52 64 4.5 40.1
01:00 1012 29.88 841 24.83 11.1 52 63 4.5 40
01:05 1012 29.88 841 24.83 11.2 52.1 63 4.4 40
01:10 1012 29.88 841 24.83 11.2 52.1 62 4.3 39.8
01:15 1012 29.88 841 24.83 11.2 52.1 62 4.2 39.6
01:20 1012 29.88 841 24.83 11.1 52 62 4.2 39.6
01:25 1012 29.88 841 24.83 11.2 52.2 61 4.1 39.3
01:30 1012 29.88 841 24.83 11.1 51.9 62 4.1 39.5
01:35 1012 29.88 841 24.83 11 51.8 62 4.1 39.3
01:40 1012 29.88 841 24.83 10.9 51.5 63 4.2 39.5
01:45 1012 29.88 841 24.83 10.8 51.4 63 4 39.3
01:50 1012 29.88 841 24.83 10.8 51.4 63 4.1 39.4
01:55 1012 29.88 841 24.83 10.7 51.2 64 4.1 39.4
02:00 1012 29.88 841 24.83 10.7 51.2 64 4.1 39.5
02:05 1012 29.88 841 24.83 10.6 51 64 4.1 39.4
02:10 1012 29.88 841 24.83 10.5 50.9 65 4.2 39.6
02:15 1012 29.88 841 24.83 10.5 50.9 65 4.2 39.5
02:20 1012 29.88 841 24.83 10.6 51.1 64 4.1 39.4
02:25 1012 29.88 841 24.83 10.7 51.2 64 4.1 39.5
02:30 1012 29.88 841 24.83 10.6 51 64 4.2 39.5
02:35 1012 29.88 841 24.83 10.4 50.6 66 4.3 39.7
02:40 1012 29.88 841 24.83 10.2 50.3 66 4.2 39.6
02:45 1012 29.88 841 24.83 10 50.1 68 4.3 39.8
02:50 1012 29.88 841 24.83 10.1 50.2 67 4.3 39.7
02:55 1012 29.88 841 24.83 10.1 50.2 68 4.5 40.2
03:00 1012 29.88 841 24.83 9.7 49.5 69 4.4 39.9
03:05 1012 29.88 841 24.83 9.7 49.5 69 4.4 40
03:10 1012 29.88 841 24.83 9.6 49.2 71 4.5 40.1
03:15 1012 29.88 841 24.83 9.5 49 70 4.3 39.7
03:20 1012 29.88 841 24.83 9.5 49.1 71 4.4 40
03:25 1012 29.88 841 24.83 9.4 49 71 4.5 40.1
03:30 1012 29.88 841 24.83 9.2 48.5 71 4.2 39.6
03:35 1012 29.88 841 24.83 9.2 48.5 72 4.3 39.8
03:40 1012 29.88 841 24.83 9 48.1 73 4.3 39.8
03:45 1012 29.88 841 24.83 8.8 47.8 74 4.4 39.9
03:50 1012 29.88 841 24.83 8.8 47.8 74 4.3 39.8
03:55 1012 29.88 841 24.83 8.6 47.5 74 4.4 39.9
04:00 1012 29.88 841 24.83 8.5 47.3 74 4.2 39.6
04:05 1012 29.88 841 24.83 8.3 47 75 4.2 39.5
04:10 1012 29.88 841 24.83 8.3 46.9 75 4.1 39.3
04:15 1012 29.88 841 24.83 8.5 47.2 73 3.9 39
04:20 1012 29.88 841 24.83 8.6 47.5 72 3.9 39
04:25 1012 29.88 841 24.83 8.7 47.7 72 3.9 39.1
04:30 1012 29.88 841 24.83 8.7 47.7 73 4.1 39.4
04:35 1012 29.88 841 24.83 8.4 47.1 74 4.1 39.3
04:40 1012 29.88 841 24.83 8.2 46.8 75 4 39.2
04:45 1012 29.88 841 24.83 8 46.4 76 4 39.1
04:50 1012 29.88 841 24.83 7.9 46.2 76 4 39.1
04:55 1012 29.88 841 24.83 7.9 46.2 76 3.9 39
05:00 1012 29.88 841 24.83 7.8 46.1 76 3.9 39
05:05 1012 29.88 841 24.83 7.8 46 77 3.9 39.1
05:10 1012 29.88 841 24.83 7.9 46.1 77 4 39.2
05:15 1012 29.88 841 24.83 7.7 45.8 78 4.1 39.3
05:20 1012 29.88 841 24.83 7.5 45.4 78 3.9 39
05:25 1012 29.88 841 24.83 7.5 45.5 78 3.8 38.9
05:30 1012 29.88 841 24.83 7.6 45.8 77 3.8 38.9
05:35 1012 29.88 841 24.83 7.8 46.1 76 3.9 39
05:40 1012 29.88 841 24.83 7.8 46.1 76 3.9 39.1
05:45 1012 29.88 841 24.83 7.7 45.8 78 4.1 39.5
05:50 1012 29.88 841 24.83 7.2 44.9 80 3.9 39
05:55 1012 29.88 841 24.83 7.4 45.3 77 3.7 38.7
06:00 1012 29.88 841 24.83 7.7 45.9 77 3.9 39.1
06:05 1012 29.88 841 24.83 7.7 45.8 77 4 39.1
06:10 1012 29.88 841 24.83 7.8 46.1 77 4 39.2
06:15 1012 29.88 841 24.83 8.1 46.5 75 4 39.2
06:20 1012 29.88 841 24.83 8.1 46.6 76 4.2 39.6
06:25 1012 29.88 841 24.83 7.9 46.3 77 4.1 39.4
06:30 1012 29.88 841 24.83 8 46.3 76 4 39.3
06:35 1012 29.88 841 24.83 8.4 47.1 75 4.2 39.5
06:40 1012 29.88 841 24.83 8.8 47.9 73 4.2 39.5
06:45 1012 29.88 841 24.83 9 48.2 73 4.3 39.8
06:50 1012 29.88 841 24.83 9.2 48.6 71 4.3 39.7
06:55 1012 29.88 841 24.83 9.5 49 71 4.5 40.2
07:00 1012 29.88 841 24.83 9.6 49.2 71 4.6 40.3
07:05 1012 29.88 841 24.83 9.7 49.4 72 4.9 40.7
07:10 1012 29.88 841 24.83 9.8 49.7 70 4.7 40.5
07:15 1012 29.88 841 24.83 10.4 50.6 68 4.7 40.5
07:20 1012 29.88 841 24.83 11.1 52 63 4.4 39.9
07:25 1011 29.85 841 24.83 11.4 52.5 64 4.9 40.8
07:30 1011 29.85 841 24.83 11.2 52.2 64 4.8 40.6
07:35 1011 29.85 841 24.83 11.1 51.9 65 4.7 40.5
07:40 1011 29.85 841 24.83 11.5 52.7 63 4.8 40.7
07:45 1011 29.85 841 24.83 11.7 53 63 4.9 40.9
07:50 1012 29.88 841 24.83 11.8 53.2 63 5 41
07:55 1012 29.88 841 24.83 12 53.7 63 5.3 41.6
08:00 1012 29.88 841 24.83 12.7 54.9 61 5.4 41.7
08:05 1012 29.88 841 24.83 12.9 55.1 60 5.3 41.6
08:10 1012 29.88 841 24.83 13.1 55.6 58 5.2 41.3
08:15 1012 29.88 841 24.83 13.6 56.6 58 5.5 42
08:20 1012 29.88 841 24.83 14.2 57.6 58 6.2 43.2
08:25 1012 29.88 841 24.83 14.3 57.8 59 6.5 43.7
08:30 1012 29.88 841 24.83 14.4 58 58 6.4 43.6
08:35 1012 29.88 841 24.83 14.1 57.5 59 6.2 43.2
08:40 1012 29.88 841 24.83 14.5 58 58 6.3 43.3
08:45 1012 29.88 841 24.83 14.5 58 60 6.9 44.4
08:50 1011 29.85 841 24.83 13.7 56.7 61 6.4 43.5
08:55 1011 29.85 841 24.83 13.7 56.6 61 6.4 43.5
09:00 1011 29.85 841 24.83 13.9 57 62 6.7 44
09:05 1011 29.85 841 24.83 14.4 58 57 6.1 42.9
09:10 1011 29.85 841 24.83 15.7 60.3 54 6.4 43.6
09:15 1011 29.85 840 24.81 16.1 61 55 7.2 45
09:20 1011 29.85 840 24.81 15.3 59.6 56 6.8 44.2
09:25 1011 29.85 840 24.81 15 59 57 6.7 44.1
09:30 1011 29.85 840 24.81 15.8 60.5 51 5.9 42.6
09:35 1011 29.85 840 24.81 16.4 61.5 51 6.3 43.3
09:40 1011 29.85 840 24.81 17.2 63 48 6.4 43.4
09:45 1011 29.85 840 24.81 17.6 63.7 48 6.5 43.8
09:50 1011 29.85 840 24.81 17.7 63.8 46 6 42.8
09:55 1011 29.85 840 24.81 18.2 64.7 41 4.9 40.8
10:00 1011 29.85 840 24.81 18.4 65.2 42 5.3 41.6
10:05 1011 29.85 840 24.81 18.2 64.7 43 5.6 42
10:10 1011 29.85 840 24.81 18 64.5 44 5.7 42.2
10:15 1011 29.85 840 24.81 18.9 66 41 5.5 42
10:20 1011 29.85 840 24.81 18.8 65.9 43 6.2 43.1
10:25 1011 29.85 840 24.81 18.8 65.9 43 6.1 42.9
10:30 1011 29.85 840 24.81 19.3 66.8 45 7.2 44.9
10:35 1011 29.85 840 24.81 19.4 66.9 42 6.3 43.3
10:40 1010 29.83 840 24.81 19.4 66.9 45 7.2 44.9
10:45 1010 29.83 840 24.81 19.5 67.1 42 6.4 43.5
10:50 1010 29.83 840 24.81 20.4 68.8 35 4.5 40
10:55 1010 29.83 840 24.81 20.7 69.3 38 6.2 43.2
11:00 1010 29.83 840 24.81 19.7 67.5 37 4.7 40.4
11:05 1010 29.83 839 24.78 20.5 68.9 36 5 41
11:10 1010 29.83 839 24.78 20.6 69.1 34 4.2 39.5
11:15 1010 29.83 839 24.78 20.2 68.4 34 4.1 39.4
11:20 1010 29.83 839 24.78 20 67.9 33 3.6 38.4
11:25 1010 29.83 839 24.78 20.9 69.6 31 3.2 37.7
11:30 1010 29.83 839 24.78 20.5 68.9 33 4 39.2
11:35 1010 29.83 839 24.78 21.2 70.1 30 3.2 37.7
11:40 1010 29.83 839 24.78 22 71.5 29 3.3 37.9
11:45 1010 29.83 839 24.78 22.8 73.1 28 3.7 38.6
11:50 1010 29.83 839 24.78 22.8 73 28 3.6 38.4
11:55 1010 29.83 839 24.78 22 71.5 29 3.1 37.6
12:00 1010 29.83 839 24.78 21.4 70.6 29 2.8 37
12:05 1010 29.83 839 24.78 22.2 71.9 28 2.7 36.9
12:10 1010 29.83 839 24.78 21.2 70.2 29 2.9 37.1
12:15 1010 29.83 839 24.78 21 69.9 30 3.1 37.5
12:20 1009 29.8 839 24.78 20.8 69.4 29 2.4 36.2
12:25 1009 29.8 839 24.78 21.5 70.6 27 1.9 35.4
12:30 1009 29.8 839 24.78 21.7 71.1 27 2 35.6
12:35 1009 29.8 838 24.75 22.7 72.9 25 2.1 35.8
12:40 1009 29.8 838 24.75 22.5 72.5 26 2.3 36.1
12:45 1009 29.8 838 24.75 22.3 72.1 28 2.8 37.1
12:50 1009 29.8 838 24.75 23 73.3 23 1 33.7
12:55 1009 29.8 838 24.75 22.9 73.2 25 2 35.7
13:00 1009 29.8 838 24.75 23.1 73.6 24 1.9 35.4
13:05 1009 29.8 838 24.75 23.9 75.1 24 2.5 36.5
13:10 1009 29.8 838 24.75 23.8 74.8 23 1.7 35.1
13:15 1009 29.8 838 24.75 23.5 74.3 24 1.8 35.2
13:20 1009 29.8 838 24.75 24.3 75.7 23 2.3 36.2
13:25 1009 29.8 838 24.75 22.9 73.2 24 1.4 34.6
13:30 1009 29.8 838 24.75 23.8 74.8 22 1.2 34.1
13:35 1009 29.8 838 24.75 24.2 75.5 21 0.8 33.4
13:40 1009 29.8 838 24.75 24.2 75.6 21 1.1 33.9
13:45 1009 29.8 838 24.75 23.2 73.8 22 0.7 33.2
13:50 1009 29.8 838 24.75 23.4 74.1 23 1.1 33.9
13:55 1008 29.77 838 24.75 24.2 75.6 21 0.8 33.4
14:00 1008 29.77 838 24.75 24.2 75.6 21 1 33.8
14:05 1008 29.77 838 24.75 24 75.3 24 2.5 36.6
14:10 1008 29.77 838 24.75 24 75.2 23 2.1 35.7
14:15 1008 29.77 838 24.75 24.1 75.3 22 1.2 34.2
14:20 1008 29.77 837 24.72 24 75.2 23 1.8 35.3
14:25 1008 29.77 837 24.72 23.1 73.5 25 2 35.6
14:30 1008 29.77 837 24.72 22.3 72.2 25 1.4 34.4
14:35 1008 29.77 837 24.72 22.8 73 23 0.8 33.4
14:40 1008 29.77 837 24.72 22.2 72 25 1.5 34.7
14:45 1008 29.77 837 24.72 22 71.6 25 1.5 34.7
14:50 1008 29.77 837 24.72 22.4 72.4 26 2.3 36.1
14:55 1008 29.77 837 24.72 22.6 72.7 27 2.7 36.8
15:00 1008 29.77 837 24.72 22.7 72.9 25 2.1 35.7
15:05 1008 29.77 837 24.72 23 73.3 27 3.1 37.6
15:10 1008 29.77 837 24.72 22.6 72.6 27 3 37.3
15:15 1008 29.77 837 24.72 22.7 72.9 26 2.7 36.9
15:20 1007 29.74 837 24.72 23.1 73.6 23 1.1 34
15:25 1007 29.74 837 24.72 23 73.4 23 1.2 34.2
15:30 1007 29.74 836 24.69 22.9 73.2 24 1.5 34.8
15:35 1007 29.74 836 24.69 23.1 73.5 23 1.3 34.3
15:40 1007 29.74 836 24.69 23.8 74.8 22 1.1 34.1
15:45 1007 29.74 836 24.69 23.5 74.2 22 0.9 33.6
15:50 1007 29.74 836 24.69 23.4 74.2 22 0.7 33.3
15:55 1007 29.74 836 24.69 23.8 74.8 22 1 33.8
16:00 1007 29.74 836 24.69 22.9 73.2 22 0.2 32.4
16:05 1007 29.74 836 24.69 22.6 72.6 22 0 32
16:10 1007 29.74 836 24.69 22.3 72.1 28 3.2 37.8
16:15 1007 29.74 836 24.69 21.2 70.2 31 3.5 38.2
16:20 1007 29.74 836 24.69 20.1 68.3 32 3.2 37.8
16:25 1007 29.74 836 24.69 20.1 68.1 31 2.6 36.6
16:30 1007 29.74 836 24.69 20.2 68.4 31 2.7 36.8
16:35 1007 29.74 836 24.69 21.1 69.9 29 2.4 36.4
16:40 1007 29.74 836 24.69 21.6 70.9 28 2.6 36.8
16:45 1007 29.74 836 24.69 21.9 71.4 28 2.9 37.3
16:50 1007 29.74 836 24.69 22 71.5 27 2.1 35.8
16:55 1007 29.74 836 24.69 22 71.7 27 2.1 35.9
17:00 1007 29.74 836 24.69 22.6 72.7 25 1.9 35.5
17:05 1007 29.74 836 24.69 22.3 72.1 25 1.6 34.8
17:10 1007 29.74 836 24.69 22.2 72 27 2.3 36.1
17:15 1007 29.74 836 24.69 22.2 72 26 2 35.5
17:20 1007 29.74 836 24.69 22.4 72.3 26 2 35.6
17:25 1007 29.74 836 24.69 22.3 72.1 24 0.9 33.6
17:30 1007 29.74 836 24.69 22.8 73 24 1.1 34.1
17:35 1006 29.71 836 24.69 22.8 73 26 2.3 36.2
17:40 1006 29.71 836 24.69 23.1 73.5 27 3.1 37.6
17:45 1006 29.71 835 24.66 22.8 73.1 26 2.4 36.3
17:50 1006 29.71 835 24.66 22.8 73 26 2.4 36.4
17:55 1006 29.71 835 24.66 22.8 73 26 2.7 36.8
18:00 1006 29.71 835 24.66 22.6 72.7 27 3.1 37.6
18:05 1006 29.71 835 24.66 22.4 72.3 27 2.5 36.4
18:10 1006 29.71 835 24.66 22.6 72.6 27 2.6 36.8
18:15 1006 29.71 835 24.66 22.2 72 28 3 37.3
18:20 1006 29.71 835 24.66 22.1 71.8 28 2.9 37.2
18:25 1006 29.71 835 24.66 22 71.5 29 3.1 37.7
18:30 1006 29.71 835 24.66 21.6 70.9 32 4.5 40
18:35 1006 29.71 835 24.66 21.1 70 34 4.6 40.3
18:40 1006 29.71 835 24.66 20.9 69.7 34 4.7 40.5
18:45 1006 29.71 835 24.66 20.6 69.1 36 5 41
18:50 1006 29.71 835 24.66 20.5 68.8 35 4.7 40.4
18:55 1006 29.71 835 24.66 20.4 68.7 35 4.7 40.4
19:00 1006 29.71 835 24.66 20.3 68.6 35 4.6 40.3
19:05 1006 29.71 835 24.66 20.2 68.4 37 5.4 41.8
19:10 1006 29.71 835 24.66 20.4 68.6 34 4 39.2
19:15 1006 29.71 835 24.66 20.7 69.3 31 3.2 37.8
19:20 1006 29.71 835 24.66 21 69.7 33 4.5 40
19:25 1007 29.74 836 24.69 20.7 69.3 34 4.3 39.8
19:30 1007 29.74 836 24.69 20.6 69.1 35 4.8 40.6
19:35 1007 29.74 836 24.69 19.6 67.3 35 4 39.1
19:40 1007 29.74 836 24.69 19 66.2 35 3.4 38.2
19:45 1007 29.74 836 24.69 18.8 65.9 36 3.5 38.2
19:50 1007 29.74 837 24.72 18.8 65.8 36 3.4 38.1
19:55 1008 29.77 837 24.72 18.6 65.5 37 3.6 38.5
20:00 1008 29.77 837 24.72 18.3 65 39 4.2 39.6
20:05 1008 29.77 837 24.72 18.1 64.5 39 4.2 39.5
20:10 1008 29.77 837 24.72 17.9 64.3 40 4.4 39.9
20:15 1008 29.77 838 24.75 17.7 63.9 41 4.5 40.1
20:20 1009 29.8 838 24.75 17.3 63.1 46 5.7 42.2
20:25 1009 29.8 838 24.75 16.5 61.8 52 6.7 44.1
20:30 1009 29.8 838 24.75 15.4 59.7 58 7.3 45.2
20:35 1009 29.8 838 24.75 14.5 58.1 61 7.1 44.7
20:40 1009 29.8 838 24.75 14 57.1 63 7.1 44.8
20:45 1010 29.83 839 24.78 13.6 56.4 64 7 44.6
20:50 1010 29.83 839 24.78 13.6 56.6 63 6.9 44.4
20:55 1010 29.83 839 24.78 13.8 56.9 63 6.9 44.4
21:00 1009 29.8 839 24.78 13.8 56.9 66 7.6 45.7
21:05 1009 29.8 839 24.78 13.6 56.5 68 7.8 46
21:10 1010 29.83 839 24.78 13.5 56.4 69 8 46.3
21:15 1010 29.83 839 24.78 13.5 56.3 66 7.3 45.1
21:20 1010 29.83 839 24.78 13.5 56.3 68 7.7 45.9
21:25 1010 29.83 839 24.78 13.3 55.9 68 7.6 45.6
21:30 1010 29.83 839 24.78 12.9 55.3 71 7.9 46.2
21:35 1010 29.83 839 24.78 12.8 55.1 70 7.6 45.7
21:40 1010 29.83 839 24.78 12.7 54.9 71 7.7 45.8
21:45 1010 29.83 839 24.78 12.6 54.6 73 7.8 46.1
21:50 1010 29.83 839 24.78 12.3 54.1 74 7.9 46.2
21:55 1010 29.83 839 24.78 11.8 53.3 75 7.6 45.6
22:00 1010 29.83 839 24.78 11.8 53.2 75 7.4 45.4
22:05 1010 29.83 840 24.81 11.7 53.1 75 7.6 45.6
22:10 1010 29.83 840 24.81 11.7 53 75 7.4 45.3
22:15 1010 29.83 840 24.81 11.8 53.2 75 7.5 45.5
22:20 1010 29.83 839 24.78 11.9 53.4 74 7.5 45.5
22:25 1010 29.83 840 24.81 12 53.7 73 7.3 45.2
22:30 1010 29.83 840 24.81 12.1 53.8 72 7.2 44.9
22:35 1011 29.85 840 24.81 12.1 53.8 71 7 44.6
22:40 1011 29.85 840 24.81 12.1 53.9 70 6.9 44.5
22:45 1011 29.85 840 24.81 12.2 53.9 71 7.1 44.7
22:50 1011 29.85 840 24.81 12 53.7 72 7.1 44.9
22:55 1011 29.85 840 24.81 11.8 53.2 73 7 44.6
23:00 1010 29.83 840 24.81 11.6 52.8 73 6.9 44.4
23:05 1010 29.83 840 24.81 11.5 52.8 72 6.7 44
23:10 1011 29.85 840 24.81 11.6 52.8 73 6.8 44.3
23:15 1011 29.85 840 24.81 11.5 52.8 74 7.1 44.7
23:20 1011 29.85 840 24.81 11.2 52.2 79 7.7 45.9
23:25 1011 29.85 840 24.81 10.9 51.6 81 7.7 45.9
23:30 1010 29.83 840 24.81 10.8 51.4 81 7.7 45.9
23:35 1011 29.85 840 24.81 10.7 51.3 81 7.7 45.8
23:40 1011 29.85 840 24.81 10.6 51.1 83 7.9 46.3
23:45 1011 29.85 840 24.81 10.5 50.9 85 8 46.5
23:50 1011 29.85 840 24.81 10.3 50.5 85 8 46.3
23:55 1011 29.85 840 24.81 10.2 50.4 85 7.9 46.2
24:00 1011 29.85 840 24.81 10.3 50.5 85 8 46.3